sensor_id;sensor_type;location;lat;lon;timestamp;temperature;humidity
26212;DHT22;13951;49.516;6.094;2024-03-17T01:57:27;7.70;99.90
26212;DHT22;13951;49.516;6.094;2024-03-17T02:03:46;7.60;99.90
26212;DHT22;13951;49.516;6.094;2024-03-17T02:06:18;7.60;99.90
26212;DHT22;13951;49.516;6.094;2024-03-17T02:11:57;7.50;99.90
26212;DHT22;13951;49.516;6.094;2024-03-17T02:14:31;7.40;99.90
26212;DHT22;13951;49.516;6.094;2024-03-17T02:17:03;7.30;99.90
26212;DHT22;13951;49.516;6.094;2024-03-17T02:19:46;7.30;99.90
26212;DHT22;13951;49.516;6.094;2024-03-17T02:22:22;7.40;99.90
26212;DHT22;13951;49.516;6.094;2024-03-17T03:47:03;6.70;99.90
26212;DHT22;13951;49.516;6.094;2024-03-17T03:49:45;6.70;99.90
26212;DHT22;13951;49.516;6.094;2024-03-17T03:52:17;6.70;99.90
26212;DHT22;13951;49.516;6.094;2024-03-17T03:54:57;6.70;99.90
26212;DHT22;13951;49.516;6.094;2024-03-17T03:57:50;6.60;99.90
26212;DHT22;13951;49.516;6.094;2024-03-17T04:00:30;6.60;99.90
26212;DHT22;13951;49.516;6.094;2024-03-17T04:03:10;6.60;99.90
26212;DHT22;13951;49.516;6.094;2024-03-17T04:06:09;6.60;99.90
26212;DHT22;13951;49.516;6.094;2024-03-17T04:09:06;6.50;99.90
26212;DHT22;13951;49.516;6.094;2024-03-17T04:12:02;6.50;99.90
26212;DHT22;13951;49.516;6.094;2024-03-17T04:14:55;6.50;99.90
26212;DHT22;13951;49.516;6.094;2024-03-17T04:17:37;6.50;99.90
26212;DHT22;13951;49.516;6.094;2024-03-17T04:20:16;6.40;99.90
26212;DHT22;13951;49.516;6.094;2024-03-17T04:23:08;6.10;99.90
26212;DHT22;13951;49.516;6.094;2024-03-17T04:25:52;6.30;99.90
26212;DHT22;13951;49.516;6.094;2024-03-17T04:28:50;6.30;99.90
26212;DHT22;13951;49.516;6.094;2024-03-17T04:31:31;6.30;99.90
26212;DHT22;13951;49.516;6.094;2024-03-17T04:34:15;6.30;99.90
26212;DHT22;13951;49.516;6.094;2024-03-17T04:37:06;6.30;99.90
26212;DHT22;13951;49.516;6.094;2024-03-17T04:39:45;6.20;99.90
26212;DHT22;13951;49.516;6.094;2024-03-17T04:42:33;6.20;99.90
26212;DHT22;13951;49.516;6.094;2024-03-17T04:45:27;6.10;99.90
26212;DHT22;13951;49.516;6.094;2024-03-17T04:48:19;6.10;99.90
26212;DHT22;13951;49.516;6.094;2024-03-17T04:51:05;6.10;99.90
26212;DHT22;13951;49.516;6.094;2024-03-17T04:53:48;6.10;99.90
26212;DHT22;13951;49.516;6.094;2024-03-17T04:56:29;6.10;99.90
26212;DHT22;13951;49.516;6.094;2024-03-17T04:59:15;6.10;99.90
26212;DHT22;13951;49.516;6.094;2024-03-17T05:59:07;5.90;99.90
26212;DHT22;13951;49.516;6.094;2024-03-17T06:08:00;6.00;99.90
26212;DHT22;13951;49.516;6.094;2024-03-17T07:13:09;6.90;99.90
26212;DHT22;13951;49.516;6.094;2024-03-17T07:15:56;7.10;99.90
26212;DHT22;13951;49.516;6.094;2024-03-17T07:18:39;7.20;99.90
26212;DHT22;13951;49.516;6.094;2024-03-17T07:46:21;8.00;99.90
26212;DHT22;13951;49.516;6.094;2024-03-17T07:48:53;8.10;99.90
26212;DHT22;13951;49.516;6.094;2024-03-17T07:51:27;8.10;99.90
26212;DHT22;13951;49.516;6.094;2024-03-17T07:54:00;8.10;99.90
26212;DHT22;13951;49.516;6.094;2024-03-17T07:56:34;8.10;99.90
26212;DHT22;13951;49.516;6.094;2024-03-17T07:59:07;8.00;99.90
26212;DHT22;13951;49.516;6.094;2024-03-17T08:01:49;8.00;99.90
26212;DHT22;13951;49.516;6.094;2024-03-17T08:04:22;7.90;99.90
26212;DHT22;13951;49.516;6.094;2024-03-17T08:06:56;7.90;99.90
26212;DHT22;13951;49.516;6.094;2024-03-17T08:09:28;8.00;99.90
26212;DHT22;13951;49.516;6.094;2024-03-17T08:12:10;8.00;99.90
26212;DHT22;13951;49.516;6.094;2024-03-17T08:14:43;8.10;99.90
26212;DHT22;13951;49.516;6.094;2024-03-17T08:17:15;8.30;99.90
26212;DHT22;13951;49.516;6.094;2024-03-17T08:36:23;8.70;99.90
26212;DHT22;13951;49.516;6.094;2024-03-17T08:39:42;8.70;99.90
26212;DHT22;13951;49.516;6.094;2024-03-17T08:42:15;8.70;99.90
26212;DHT22;13951;49.516;6.094;2024-03-17T08:44:47;8.70;99.90
26212;DHT22;13951;49.516;6.094;2024-03-17T08:47:19;8.70;99.90
26212;DHT22;13951;49.516;6.094;2024-03-17T08:49:51;8.70;99.90
26212;DHT22;13951;49.516;6.094;2024-03-17T08:52:23;8.70;99.90
26212;DHT22;13951;49.516;6.094;2024-03-17T09:14:37;9.10;99.90
26212;DHT22;13951;49.516;6.094;2024-03-17T09:17:10;9.10;99.90
26212;DHT22;13951;49.516;6.094;2024-03-17T09:19:44;9.10;99.90
26212;DHT22;13951;49.516;6.094;2024-03-17T09:22:16;9.10;99.90
26212;DHT22;13951;49.516;6.094;2024-03-17T09:24:50;9.10;99.90
26212;DHT22;13951;49.516;6.094;2024-03-17T09:27:23;9.00;99.90
26212;DHT22;13951;49.516;6.094;2024-03-17T09:29:57;9.00;99.90
26212;DHT22;13951;49.516;6.094;2024-03-17T09:32:32;8.90;99.90
26212;DHT22;13951;49.516;6.094;2024-03-17T09:35:05;9.00;99.90
26212;DHT22;13951;49.516;6.094;2024-03-17T09:37:38;9.00;99.90
26212;DHT22;13951;49.516;6.094;2024-03-17T09:46:07;9.00;99.90
26212;DHT22;13951;49.516;6.094;2024-03-17T09:48:40;9.00;99.90
26212;DHT22;13951;49.516;6.094;2024-03-17T09:51:21;9.00;99.90
26212;DHT22;13951;49.516;6.094;2024-03-17T09:53:55;9.00;99.90
26212;DHT22;13951;49.516;6.094;2024-03-17T09:56:27;9.00;99.90
26212;DHT22;13951;49.516;6.094;2024-03-17T09:59:03;9.10;99.90
26212;DHT22;13951;49.516;6.094;2024-03-17T10:01:35;9.10;99.90
26212;DHT22;13951;49.516;6.094;2024-03-17T10:04:08;9.10;99.90
26212;DHT22;13951;49.516;6.094;2024-03-17T10:06:46;9.30;99.90
26212;DHT22;13951;49.516;6.094;2024-03-17T10:09:28;9.20;99.90
26212;DHT22;13951;49.516;6.094;2024-03-17T10:18:22;9.30;99.90
26212;DHT22;13951;49.516;6.094;2024-03-17T10:21:01;9.30;99.90
26212;DHT22;13951;49.516;6.094;2024-03-17T10:23:35;9.30;99.90
26212;DHT22;13951;49.516;6.094;2024-03-17T10:26:13;9.30;99.90
26212;DHT22;13951;49.516;6.094;2024-03-17T10:28:46;9.30;99.90
26212;DHT22;13951;49.516;6.094;2024-03-17T10:35:39;9.40;99.90
26212;DHT22;13951;49.516;6.094;2024-03-17T10:38:12;9.40;99.90
26212;DHT22;13951;49.516;6.094;2024-03-17T10:40:45;9.40;99.90
26212;DHT22;13951;49.516;6.094;2024-03-17T10:43:17;9.50;99.90
26212;DHT22;13951;49.516;6.094;2024-03-17T10:45:49;9.60;99.90
26212;DHT22;13951;49.516;6.094;2024-03-17T10:48:25;9.60;99.90
26212;DHT22;13951;49.516;6.094;2024-03-17T10:51:01;9.70;99.90
26212;DHT22;13951;49.516;6.094;2024-03-17T10:53:34;9.90;99.90
26212;DHT22;13951;49.516;6.094;2024-03-17T10:56:08;10.00;99.90
26212;DHT22;13951;49.516;6.094;2024-03-17T10:58:44;10.10;99.90
26212;DHT22;13951;49.516;6.094;2024-03-17T11:01:22;10.10;99.90
26212;DHT22;13951;49.516;6.094;2024-03-17T11:03:54;10.10;99.90
26212;DHT22;13951;49.516;6.094;2024-03-17T11:06:41;10.20;99.90
26212;DHT22;13951;49.516;6.094;2024-03-17T11:09:15;10.20;99.90
26212;DHT22;13951;49.516;6.094;2024-03-17T11:11:48;10.20;99.90
26212;DHT22;13951;49.516;6.094;2024-03-17T11:14:22;10.20;99.90
26212;DHT22;13951;49.516;6.094;2024-03-17T11:16:56;10.10;99.90
26212;DHT22;13951;49.516;6.094;2024-03-17T11:19:28;10.10;99.90
26212;DHT22;13951;49.516;6.094;2024-03-17T11:22:41;10.10;99.90
26212;DHT22;13951;49.516;6.094;2024-03-17T11:28:08;10.20;99.90
26212;DHT22;13951;49.516;6.094;2024-03-17T11:30:48;10.40;99.90
26212;DHT22;13951;49.516;6.094;2024-03-17T11:39:09;10.80;99.90
26212;DHT22;13951;49.516;6.094;2024-03-17T11:41:55;10.90;99.90
26212;DHT22;13951;49.516;6.094;2024-03-17T11:44:27;11.20;99.90
26212;DHT22;13951;49.516;6.094;2024-03-17T11:47:05;11.50;99.90
26212;DHT22;13951;49.516;6.094;2024-03-17T11:49:41;11.90;99.90
26212;DHT22;13951;49.516;6.094;2024-03-17T11:52:16;12.10;99.90
26212;DHT22;13951;49.516;6.094;2024-03-17T11:54:48;12.40;99.90
26212;DHT22;13951;49.516;6.094;2024-03-17T11:57:22;12.50;99.90
26212;DHT22;13951;49.516;6.094;2024-03-17T11:59:56;12.40;99.90
26212;DHT22;13951;49.516;6.094;2024-03-17T12:02:31;12.40;99.90
26212;DHT22;13951;49.516;6.094;2024-03-17T12:05:05;12.50;99.90
26212;DHT22;13951;49.516;6.094;2024-03-17T12:07:42;12.50;99.90
26212;DHT22;13951;49.516;6.094;2024-03-17T12:10:15;12.40;99.90
26212;DHT22;13951;49.516;6.094;2024-03-17T12:12:48;12.30;99.90
26212;DHT22;13951;49.516;6.094;2024-03-17T12:15:20;12.30;99.90
26212;DHT22;13951;49.516;6.094;2024-03-17T12:17:54;12.30;99.90
26212;DHT22;13951;49.516;6.094;2024-03-17T12:20:26;12.50;99.90
26212;DHT22;13951;49.516;6.094;2024-03-17T12:23:00;12.70;99.90
26212;DHT22;13951;49.516;6.094;2024-03-17T12:25:34;12.70;99.90
26212;DHT22;13951;49.516;6.094;2024-03-17T12:28:15;12.80;99.90
26212;DHT22;13951;49.516;6.094;2024-03-17T12:30:48;13.00;99.90
26212;DHT22;13951;49.516;6.094;2024-03-17T12:33:21;13.30;99.90
26212;DHT22;13951;49.516;6.094;2024-03-17T12:35:53;13.70;99.90
26212;DHT22;13951;49.516;6.094;2024-03-17T12:38:28;14.20;99.90
26212;DHT22;13951;49.516;6.094;2024-03-17T12:41:00;14.60;99.90
26212;DHT22;13951;49.516;6.094;2024-03-17T12:43:32;15.10;99.90
26212;DHT22;13951;49.516;6.094;2024-03-17T12:46:04;15.50;99.90
26212;DHT22;13951;49.516;6.094;2024-03-17T13:05:17;16.50;99.90
26212;DHT22;13951;49.516;6.094;2024-03-17T13:07:50;16.40;99.90
26212;DHT22;13951;49.516;6.094;2024-03-17T13:10:23;15.80;99.90
26212;DHT22;13951;49.516;6.094;2024-03-17T13:13:02;15.40;99.90
26212;DHT22;13951;49.516;6.094;2024-03-17T13:15:35;15.00;99.90
26212;DHT22;13951;49.516;6.094;2024-03-17T13:18:07;14.70;99.90
26212;DHT22;13951;49.516;6.094;2024-03-17T13:20:40;14.40;99.90
26212;DHT22;13951;49.516;6.094;2024-03-17T13:23:13;14.10;99.90
26212;DHT22;13951;49.516;6.094;2024-03-17T13:25:45;14.00;99.90
26212;DHT22;13951;49.516;6.094;2024-03-17T13:28:18;13.80;99.90
26212;DHT22;13951;49.516;6.094;2024-03-17T13:30:50;13.70;99.90
26212;DHT22;13951;49.516;6.094;2024-03-17T13:33:22;13.60;99.90
26212;DHT22;13951;49.516;6.094;2024-03-17T13:35:56;13.60;99.90
26212;DHT22;13951;49.516;6.094;2024-03-17T13:38:28;13.60;99.90
26212;DHT22;13951;49.516;6.094;2024-03-17T13:41:00;13.60;99.90
26212;DHT22;13951;49.516;6.094;2024-03-17T13:43:35;13.50;99.90
26212;DHT22;13951;49.516;6.094;2024-03-17T13:46:08;13.50;99.90
26212;DHT22;13951;49.516;6.094;2024-03-17T13:48:41;13.40;99.90
26212;DHT22;13951;49.516;6.094;2024-03-17T13:51:13;13.40;99.90
26212;DHT22;13951;49.516;6.094;2024-03-17T13:53:45;13.40;99.90
26212;DHT22;13951;49.516;6.094;2024-03-17T13:56:18;13.50;99.90
26212;DHT22;13951;49.516;6.094;2024-03-17T13:58:50;13.40;99.90
26212;DHT22;13951;49.516;6.094;2024-03-17T14:01:22;13.40;99.90
26212;DHT22;13951;49.516;6.094;2024-03-17T14:03:55;13.30;99.90
26212;DHT22;13951;49.516;6.094;2024-03-17T14:06:27;13.30;99.90
26212;DHT22;13951;49.516;6.094;2024-03-17T14:08:59;13.20;99.90
26212;DHT22;13951;49.516;6.094;2024-03-17T14:11:32;13.10;99.90
26212;DHT22;13951;49.516;6.094;2024-03-17T14:14:05;13.10;99.90
26212;DHT22;13951;49.516;6.094;2024-03-17T14:16:37;13.20;99.90
26212;DHT22;13951;49.516;6.094;2024-03-17T14:19:10;13.10;99.90
26212;DHT22;13951;49.516;6.094;2024-03-17T14:21:43;13.10;99.90
26212;DHT22;13951;49.516;6.094;2024-03-17T14:24:15;13.10;99.90
26212;DHT22;13951;49.516;6.094;2024-03-17T14:26:47;13.10;99.90
26212;DHT22;13951;49.516;6.094;2024-03-17T14:29:19;13.10;99.90
26212;DHT22;13951;49.516;6.094;2024-03-17T14:31:52;13.10;99.90
26212;DHT22;13951;49.516;6.094;2024-03-17T14:34:24;13.10;99.90
26212;DHT22;13951;49.516;6.094;2024-03-17T14:36:56;13.10;99.90
26212;DHT22;13951;49.516;6.094;2024-03-17T14:39:29;13.00;99.90
26212;DHT22;13951;49.516;6.094;2024-03-17T14:42:03;13.00;99.90
26212;DHT22;13951;49.516;6.094;2024-03-17T14:44:36;13.00;99.90
26212;DHT22;13951;49.516;6.094;2024-03-17T14:47:09;13.00;99.90
26212;DHT22;13951;49.516;6.094;2024-03-17T14:49:42;13.00;99.90
26212;DHT22;13951;49.516;6.094;2024-03-17T14:52:17;13.00;99.90
26212;DHT22;13951;49.516;6.094;2024-03-17T14:54:51;12.90;99.90
26212;DHT22;13951;49.516;6.094;2024-03-17T14:57:25;12.90;99.90
26212;DHT22;13951;49.516;6.094;2024-03-17T14:59:58;12.90;99.90
26212;DHT22;13951;49.516;6.094;2024-03-17T15:02:31;12.80;99.90
26212;DHT22;13951;49.516;6.094;2024-03-17T15:05:07;12.80;99.90
26212;DHT22;13951;49.516;6.094;2024-03-17T15:07:47;12.80;99.90
26212;DHT22;13951;49.516;6.094;2024-03-17T15:10:20;12.60;99.90
26212;DHT22;13951;49.516;6.094;2024-03-17T15:12:52;12.60;99.90
26212;DHT22;13951;49.516;6.094;2024-03-17T15:15:25;12.60;99.90
26212;DHT22;13951;49.516;6.094;2024-03-17T15:17:58;12.60;99.90
26212;DHT22;13951;49.516;6.094;2024-03-17T15:20:30;12.70;99.90
26212;DHT22;13951;49.516;6.094;2024-03-17T15:23:02;12.70;99.90
26212;DHT22;13951;49.516;6.094;2024-03-17T15:25:36;12.70;99.90
26212;DHT22;13951;49.516;6.094;2024-03-17T15:28:09;12.70;99.90
26212;DHT22;13951;49.516;6.094;2024-03-17T15:30:44;12.70;99.90
26212;DHT22;13951;49.516;6.094;2024-03-17T15:33:17;12.70;99.90
26212;DHT22;13951;49.516;6.094;2024-03-17T15:35:49;12.60;99.90
26212;DHT22;13951;49.516;6.094;2024-03-17T15:38:21;12.60;99.90
26212;DHT22;13951;49.516;6.094;2024-03-17T15:40:54;12.60;99.90
26212;DHT22;13951;49.516;6.094;2024-03-17T15:43:26;12.60;99.90
26212;DHT22;13951;49.516;6.094;2024-03-17T15:46:00;12.60;99.90
26212;DHT22;13951;49.516;6.094;2024-03-17T15:48:33;12.50;99.90
26212;DHT22;13951;49.516;6.094;2024-03-17T15:51:05;12.50;99.90
26212;DHT22;13951;49.516;6.094;2024-03-17T15:53:37;12.50;99.90
26212;DHT22;13951;49.516;6.094;2024-03-17T15:56:10;12.50;99.90
26212;DHT22;13951;49.516;6.094;2024-03-17T15:58:43;12.40;99.90
26212;DHT22;13951;49.516;6.094;2024-03-17T16:01:16;12.30;99.90
26212;DHT22;13951;49.516;6.094;2024-03-17T16:03:48;12.30;99.90
26212;DHT22;13951;49.516;6.094;2024-03-17T16:06:21;12.40;99.90
26212;DHT22;13951;49.516;6.094;2024-03-17T16:08:54;12.40;99.90
26212;DHT22;13951;49.516;6.094;2024-03-17T16:11:28;12.30;99.90
26212;DHT22;13951;49.516;6.094;2024-03-17T16:14:00;12.30;99.90
26212;DHT22;13951;49.516;6.094;2024-03-17T16:16:33;12.30;99.90
26212;DHT22;13951;49.516;6.094;2024-03-17T16:19:05;12.30;99.90
26212;DHT22;13951;49.516;6.094;2024-03-17T16:21:40;12.30;99.90
26212;DHT22;13951;49.516;6.094;2024-03-17T16:24:14;12.20;99.90
26212;DHT22;13951;49.516;6.094;2024-03-17T16:26:47;12.20;99.90
26212;DHT22;13951;49.516;6.094;2024-03-17T16:29:19;12.20;99.90
26212;DHT22;13951;49.516;6.094;2024-03-17T16:31:51;12.20;99.90
26212;DHT22;13951;49.516;6.094;2024-03-17T16:34:24;12.20;99.90
26212;DHT22;13951;49.516;6.094;2024-03-17T16:37:00;12.10;99.90
26212;DHT22;13951;49.516;6.094;2024-03-17T16:39:32;12.20;99.90
26212;DHT22;13951;49.516;6.094;2024-03-17T16:42:05;12.10;99.90
26212;DHT22;13951;49.516;6.094;2024-03-17T16:44:46;12.10;99.90
26212;DHT22;13951;49.516;6.094;2024-03-17T16:47:25;12.10;99.90
26212;DHT22;13951;49.516;6.094;2024-03-17T16:49:58;12.10;99.90
26212;DHT22;13951;49.516;6.094;2024-03-17T16:52:32;12.00;99.90
26212;DHT22;13951;49.516;6.094;2024-03-17T16:55:06;12.00;99.90
26212;DHT22;13951;49.516;6.094;2024-03-17T16:57:38;12.00;99.90
26212;DHT22;13951;49.516;6.094;2024-03-17T17:00:12;12.00;99.90
26212;DHT22;13951;49.516;6.094;2024-03-17T17:02:49;11.90;99.90
26212;DHT22;13951;49.516;6.094;2024-03-17T17:05:22;11.90;99.90
26212;DHT22;13951;49.516;6.094;2024-03-17T17:07:54;11.90;99.90
26212;DHT22;13951;49.516;6.094;2024-03-17T17:10:27;11.90;99.90
26212;DHT22;13951;49.516;6.094;2024-03-17T17:12:59;11.80;99.90
26212;DHT22;13951;49.516;6.094;2024-03-17T17:15:32;11.80;99.90
26212;DHT22;13951;49.516;6.094;2024-03-17T17:18:05;11.80;99.90
26212;DHT22;13951;49.516;6.094;2024-03-17T17:20:39;11.80;99.90
26212;DHT22;13951;49.516;6.094;2024-03-17T17:23:11;11.70;99.90
26212;DHT22;13951;49.516;6.094;2024-03-17T17:25:47;11.60;99.90
26212;DHT22;13951;49.516;6.094;2024-03-17T17:28:19;11.60;99.90
26212;DHT22;13951;49.516;6.094;2024-03-17T17:30:51;11.50;99.90
26212;DHT22;13951;49.516;6.094;2024-03-17T17:33:24;11.40;99.90
26212;DHT22;13951;49.516;6.094;2024-03-17T17:35:57;11.40;99.90
26212;DHT22;13951;49.516;6.094;2024-03-17T17:38:29;11.30;99.90
26212;DHT22;13951;49.516;6.094;2024-03-17T17:41:06;11.30;99.90
26212;DHT22;13951;49.516;6.094;2024-03-17T17:46:20;11.20;99.90
26212;DHT22;13951;49.516;6.094;2024-03-17T17:48:53;11.20;99.90
26212;DHT22;13951;49.516;6.094;2024-03-17T17:51:26;11.20;99.90
26212;DHT22;13951;49.516;6.094;2024-03-17T17:53:58;11.10;99.90
26212;DHT22;13951;49.516;6.094;2024-03-17T17:56:30;11.10;99.90
26212;DHT22;13951;49.516;6.094;2024-03-17T17:59:02;11.10;99.90
26212;DHT22;13951;49.516;6.094;2024-03-17T18:01:36;11.00;99.90
26212;DHT22;13951;49.516;6.094;2024-03-17T18:04:08;11.00;99.90
26212;DHT22;13951;49.516;6.094;2024-03-17T18:06:40;11.00;99.90
26212;DHT22;13951;49.516;6.094;2024-03-17T18:09:12;11.00;99.90
26212;DHT22;13951;49.516;6.094;2024-03-17T18:12:00;11.00;99.90
26212;DHT22;13951;49.516;6.094;2024-03-17T18:14:33;11.00;99.90
26212;DHT22;13951;49.516;6.094;2024-03-17T18:17:05;11.00;99.90
26212;DHT22;13951;49.516;6.094;2024-03-17T18:19:39;11.00;99.90
26212;DHT22;13951;49.516;6.094;2024-03-17T18:22:11;11.00;99.90
26212;DHT22;13951;49.516;6.094;2024-03-17T18:24:44;11.00;99.90
26212;DHT22;13951;49.516;6.094;2024-03-17T18:27:16;11.00;99.90
26212;DHT22;13951;49.516;6.094;2024-03-17T18:29:48;11.00;99.90
26212;DHT22;13951;49.516;6.094;2024-03-17T18:32:21;11.00;99.90
26212;DHT22;13951;49.516;6.094;2024-03-17T18:34:53;10.90;99.90
26212;DHT22;13951;49.516;6.094;2024-03-17T18:37:25;10.90;99.90
26212;DHT22;13951;49.516;6.094;2024-03-17T18:39:58;10.90;99.90
26212;DHT22;13951;49.516;6.094;2024-03-17T18:42:32;10.90;99.90
26212;DHT22;13951;49.516;6.094;2024-03-17T18:45:06;10.90;99.90
26212;DHT22;13951;49.516;6.094;2024-03-17T18:47:38;10.80;99.90
26212;DHT22;13951;49.516;6.094;2024-03-17T18:50:12;10.90;99.90
26212;DHT22;13951;49.516;6.094;2024-03-17T18:52:45;10.80;99.90
26212;DHT22;13951;49.516;6.094;2024-03-17T18:55:17;10.80;99.90
26212;DHT22;13951;49.516;6.094;2024-03-17T18:57:51;10.80;99.90
26212;DHT22;13951;49.516;6.094;2024-03-17T19:00:23;10.90;99.90
26212;DHT22;13951;49.516;6.094;2024-03-17T19:02:59;10.90;99.90
26212;DHT22;13951;49.516;6.094;2024-03-17T19:05:31;10.90;99.90
26212;DHT22;13951;49.516;6.094;2024-03-17T19:08:06;11.00;99.90
26212;DHT22;13951;49.516;6.094;2024-03-17T19:10:38;10.90;99.90
26212;DHT22;13951;49.516;6.094;2024-03-17T19:13:11;10.90;99.90
26212;DHT22;13951;49.516;6.094;2024-03-17T19:15:43;10.90;99.90
26212;DHT22;13951;49.516;6.094;2024-03-17T19:18:15;10.90;99.90
26212;DHT22;13951;49.516;6.094;2024-03-17T19:20:49;11.00;99.90
26212;DHT22;13951;49.516;6.094;2024-03-17T19:23:21;11.00;99.90
26212;DHT22;13951;49.516;6.094;2024-03-17T19:25:59;11.00;99.90
26212;DHT22;13951;49.516;6.094;2024-03-17T19:28:32;10.90;99.90
26212;DHT22;13951;49.516;6.094;2024-03-17T19:31:05;10.90;99.90
26212;DHT22;13951;49.516;6.094;2024-03-17T19:33:39;10.90;99.90
26212;DHT22;13951;49.516;6.094;2024-03-17T19:36:12;10.90;99.90
26212;DHT22;13951;49.516;6.094;2024-03-17T19:38:44;10.80;99.90
26212;DHT22;13951;49.516;6.094;2024-03-17T19:41:19;10.80;99.90
26212;DHT22;13951;49.516;6.094;2024-03-17T19:43:51;10.80;99.90
26212;DHT22;13951;49.516;6.094;2024-03-17T19:46:24;10.80;99.90
26212;DHT22;13951;49.516;6.094;2024-03-17T19:48:56;10.80;99.90
26212;DHT22;13951;49.516;6.094;2024-03-17T19:51:28;10.80;99.90
26212;DHT22;13951;49.516;6.094;2024-03-17T19:54:02;10.80;99.90
26212;DHT22;13951;49.516;6.094;2024-03-17T19:56:34;10.80;99.90
26212;DHT22;13951;49.516;6.094;2024-03-17T19:59:07;10.80;99.90
26212;DHT22;13951;49.516;6.094;2024-03-17T20:01:39;10.80;99.90
26212;DHT22;13951;49.516;6.094;2024-03-17T20:04:11;10.80;99.90
26212;DHT22;13951;49.516;6.094;2024-03-17T20:06:43;10.80;99.90
26212;DHT22;13951;49.516;6.094;2024-03-17T20:09:16;10.80;99.90
26212;DHT22;13951;49.516;6.094;2024-03-17T20:11:48;10.80;99.90
26212;DHT22;13951;49.516;6.094;2024-03-17T20:14:20;10.80;99.90
26212;DHT22;13951;49.516;6.094;2024-03-17T20:16:52;10.80;99.90
26212;DHT22;13951;49.516;6.094;2024-03-17T20:19:24;10.80;99.90
26212;DHT22;13951;49.516;6.094;2024-03-17T20:21:56;10.80;99.90
26212;DHT22;13951;49.516;6.094;2024-03-17T20:24:29;10.80;99.90
26212;DHT22;13951;49.516;6.094;2024-03-17T20:27:01;10.80;99.90
26212;DHT22;13951;49.516;6.094;2024-03-17T20:29:33;10.80;99.90
26212;DHT22;13951;49.516;6.094;2024-03-17T20:32:06;10.80;99.90
26212;DHT22;13951;49.516;6.094;2024-03-17T20:34:40;10.80;99.90
26212;DHT22;13951;49.516;6.094;2024-03-17T20:37:12;10.80;99.90
26212;DHT22;13951;49.516;6.094;2024-03-17T20:39:44;10.80;99.90
26212;DHT22;13951;49.516;6.094;2024-03-17T20:42:16;10.70;99.90
26212;DHT22;13951;49.516;6.094;2024-03-17T20:44:48;10.70;99.90
26212;DHT22;13951;49.516;6.094;2024-03-17T20:47:20;10.70;99.90
26212;DHT22;13951;49.516;6.094;2024-03-17T20:49:53;10.70;99.90
26212;DHT22;13951;49.516;6.094;2024-03-17T20:52:25;10.70;99.90
26212;DHT22;13951;49.516;6.094;2024-03-17T20:54:58;10.70;99.90
26212;DHT22;13951;49.516;6.094;2024-03-17T20:57:30;10.70;99.90
26212;DHT22;13951;49.516;6.094;2024-03-17T21:00:06;10.70;99.90
26212;DHT22;13951;49.516;6.094;2024-03-17T21:02:50;10.60;99.90
26212;DHT22;13951;49.516;6.094;2024-03-17T21:05:26;10.60;99.90
26212;DHT22;13951;49.516;6.094;2024-03-17T21:08:00;10.70;99.90
26212;DHT22;13951;49.516;6.094;2024-03-17T21:10:33;10.70;99.90
26212;DHT22;13951;49.516;6.094;2024-03-17T21:13:06;10.70;99.90
26212;DHT22;13951;49.516;6.094;2024-03-17T21:15:39;10.60;99.90
26212;DHT22;13951;49.516;6.094;2024-03-17T21:18:12;10.60;99.90
26212;DHT22;13951;49.516;6.094;2024-03-17T21:20:44;10.60;99.90
26212;DHT22;13951;49.516;6.094;2024-03-17T21:23:17;10.60;99.90
26212;DHT22;13951;49.516;6.094;2024-03-17T21:25:50;10.60;99.90
26212;DHT22;13951;49.516;6.094;2024-03-17T21:28:23;10.60;99.90
26212;DHT22;13951;49.516;6.094;2024-03-17T21:30:59;10.50;99.90
26212;DHT22;13951;49.516;6.094;2024-03-17T21:33:32;10.60;99.90
26212;DHT22;13951;49.516;6.094;2024-03-17T21:36:05;10.60;99.90
26212;DHT22;13951;49.516;6.094;2024-03-17T21:38:37;10.60;99.90
26212;DHT22;13951;49.516;6.094;2024-03-17T21:41:10;10.60;99.90
26212;DHT22;13951;49.516;6.094;2024-03-17T21:43:46;10.60;99.90
26212;DHT22;13951;49.516;6.094;2024-03-17T21:46:19;10.60;99.90
26212;DHT22;13951;49.516;6.094;2024-03-17T21:48:51;10.60;99.90
26212;DHT22;13951;49.516;6.094;2024-03-17T21:51:24;10.60;99.90
26212;DHT22;13951;49.516;6.094;2024-03-17T21:53:56;10.60;99.90
26212;DHT22;13951;49.516;6.094;2024-03-17T21:56:29;10.60;99.90
26212;DHT22;13951;49.516;6.094;2024-03-17T21:59:01;10.50;99.90
26212;DHT22;13951;49.516;6.094;2024-03-17T22:01:33;10.50;99.90
26212;DHT22;13951;49.516;6.094;2024-03-17T22:04:06;10.60;99.90
26212;DHT22;13951;49.516;6.094;2024-03-17T22:06:38;10.60;99.90
26212;DHT22;13951;49.516;6.094;2024-03-17T22:09:10;10.50;99.90
26212;DHT22;13951;49.516;6.094;2024-03-17T22:11:44;10.50;99.90
26212;DHT22;13951;49.516;6.094;2024-03-17T22:14:16;10.50;99.90
26212;DHT22;13951;49.516;6.094;2024-03-17T22:16:49;10.50;99.90
26212;DHT22;13951;49.516;6.094;2024-03-17T22:19:23;10.50;99.90
26212;DHT22;13951;49.516;6.094;2024-03-17T22:21:56;10.50;99.90
26212;DHT22;13951;49.516;6.094;2024-03-17T22:24:28;10.60;99.90
26212;DHT22;13951;49.516;6.094;2024-03-17T22:27:00;10.50;99.90
26212;DHT22;13951;49.516;6.094;2024-03-17T22:29:34;10.60;99.90
26212;DHT22;13951;49.516;6.094;2024-03-17T22:32:07;10.60;99.90
26212;DHT22;13951;49.516;6.094;2024-03-17T22:34:40;10.50;99.90
26212;DHT22;13951;49.516;6.094;2024-03-17T22:37:12;10.60;99.90
26212;DHT22;13951;49.516;6.094;2024-03-17T22:39:45;10.60;99.90
26212;DHT22;13951;49.516;6.094;2024-03-17T22:42:17;10.60;99.90
26212;DHT22;13951;49.516;6.094;2024-03-17T22:44:49;10.60;99.90
26212;DHT22;13951;49.516;6.094;2024-03-17T22:47:21;10.60;99.90
26212;DHT22;13951;49.516;6.094;2024-03-17T22:49:54;10.70;99.90
26212;DHT22;13951;49.516;6.094;2024-03-17T22:52:30;10.70;99.90
26212;DHT22;13951;49.516;6.094;2024-03-17T22:55:02;10.70;99.90
26212;DHT22;13951;49.516;6.094;2024-03-17T22:57:34;10.70;99.90
26212;DHT22;13951;49.516;6.094;2024-03-17T23:00:07;10.70;99.90
26212;DHT22;13951;49.516;6.094;2024-03-17T23:02:49;10.70;99.90
26212;DHT22;13951;49.516;6.094;2024-03-17T23:05:22;10.70;99.90
26212;DHT22;13951;49.516;6.094;2024-03-17T23:07:54;10.70;99.90
26212;DHT22;13951;49.516;6.094;2024-03-17T23:10:26;10.70;99.90
26212;DHT22;13951;49.516;6.094;2024-03-17T23:13:00;10.70;99.90
26212;DHT22;13951;49.516;6.094;2024-03-17T23:15:35;10.70;99.90
26212;DHT22;13951;49.516;6.094;2024-03-17T23:18:08;10.70;99.90
26212;DHT22;13951;49.516;6.094;2024-03-17T23:20:41;10.70;99.90
26212;DHT22;13951;49.516;6.094;2024-03-17T23:23:13;10.70;99.90
26212;DHT22;13951;49.516;6.094;2024-03-17T23:25:45;10.70;99.90
26212;DHT22;13951;49.516;6.094;2024-03-17T23:28:18;10.70;99.90
26212;DHT22;13951;49.516;6.094;2024-03-17T23:30:50;10.70;99.90
26212;DHT22;13951;49.516;6.094;2024-03-17T23:33:22;10.70;99.90
26212;DHT22;13951;49.516;6.094;2024-03-17T23:35:54;10.60;99.90
26212;DHT22;13951;49.516;6.094;2024-03-17T23:38:26;10.60;99.90